In Rescue
 
Open Full Screen Window  High Contrast Mode
Wind Gusting 00 knots
10
October 21, 2021 8:40 AM EDT
Weather Information
Wind Direction
  230 °
Wind Speed
  10 kt (12 mph)
Wind Gust
  00 kt (0 mph)
Altimeter
29.91 in
Visibility
7 SM
Temperature
15° C
59° F
Dewpoint
14° C
57° F
Humidity
94%
1hr Rain Fall
00.00 in.
24hr Rain Fall
00.00 in.
Sky Condition
Broken @ 3,000 ft
Broken @ 2,400 ft
Few @ 1,500 ft
MVFR

METAR KEDJ 211240Z AUTO 23010KT 7SM FEW015 BKN024 BKN030 15/14 A2991 RMK AO1

FAA Disclaimer: The data displayed is for advisory purposes only and is not to be used for flight planning or operations.